Nearby METAR Reports

 

KSJC - San Jose, California, USA
Distance from station: NE 14km
Updated: 23/04/2019 18:53
Partly cloudy
Partly cloudy
 Wind from N
Wind: N 20 km/h
Temperature: 28°C
Heat Index: 27°C
Dew Point: 13°C
Humidity: 40%
Barometer: 1012.5 hPa
Clouds: Partly cloudy
Visibility: 16 km
Cloud details: Few Clouds 2438 m
Partly cloudy 3353 m
Partly cloudy 4877 m
2019/04/24 01:53 KSJC 240153Z 35011KT 10SM FEW080 SCT110 SCT160 28/13 A2990 RMK AO2 SLP124 T02780128
KNUQ - Moffett Nas/Mtn, California, USA
Distance from station: N 14km
Updated: 23/04/2019 18:56
Clear
Clear
 Wind from N
Wind: N 15 km/h
Temperature: 27°C
Heat Index: 27°C
Dew Point: 13°C
Humidity: 42%
Barometer: 1012.9 hPa
Clouds: Clear
Visibility: 16 km
2019/04/24 01:56 KNUQ 240156Z 36008KT 10SM CLR 27/13 A2991 RMK AO2 SLP129 T02670128 $
 
KPAO - Palo Alto, California, USA
Distance from station: NNW 23km
Updated: 23/04/2019 18:47
Partly cloudy
Partly cloudy
 Wind from NNW
Wind: NNW 13 km/h
Temperature: 27°C
Heat Index: 27°C
Dew Point: 14°C
Humidity: 45%
Barometer: 1012.5 hPa
Clouds: Partly cloudy
Visibility: 16 km
Cloud details: Partly cloudy 4572 m
2019/04/24 01:47 KPAO 240147Z 34007KT 10SM SCT150 27/14 A2990
KRHV - San Jose/Reid, California, USA
Distance from station: ENE 19km
Updated: 23/04/2019 17:47
NOT Current
Clear
Clear
 Wind from NW
Wind: NW 15 km/h
Temperature: 30°C
Dew Point: 12°C
Humidity: 33%
Barometer: 1013.2 hPa
Clouds: Clear
Visibility: 16 km
2019/04/24 00:47 KRHV 240047Z 32008KT 10SM SKC 30/12 A2992
 
KOAK - Oakland, California, USA
Distance from station: NNW 50km
Updated: 23/04/2019 18:53
Partly cloudy
Partly cloudy
 Wind from NW
Wind: NW 11 km/h
Temperature: 26°C
Dew Point: 10°C
Humidity: 37%
Barometer: 1012.9 hPa
Clouds: Partly cloudy
Visibility: 16 km
Cloud details: Partly cloudy 6096 m
2019/04/24 01:53 KOAK 240153Z 31006KT 10SM SCT200 26/10 A2991 RMK AO2 SLP128 T02610100
KSQL - San Carlos Airpo, California, USA
Distance from station: NW 34km
Updated: 23/04/2019 18:54
Few Clouds
Few Clouds
 Wind from W
Wind: W 13 km/h
Temperature: 29°C
Dew Point: 7°C
Humidity: 25%
Barometer: 1012.9 hPa
Clouds: Few Clouds
Visibility: 16 km
Cloud details: Few Clouds 6096 m
2019/04/24 01:54 KSQL 240154Z 26007KT 10SM FEW200 29/07 A2991
 
KSFO - San Francisco, California, USA
Distance from station: NW 49km
Updated: 23/04/2019 18:56
Partly cloudy
Partly cloudy
 Wind from WNW
Wind: WNW 15 km/h
Temperature: 26°C
Dew Point: 9°C
Humidity: 34%
Barometer: 1012.5 hPa
Clouds: Partly cloudy
Visibility: 16 km
Cloud details: Partly cloudy 6096 m
2019/04/24 01:56 KSFO 240156Z 29008KT 10SM SCT200 26/09 A2990 RMK AO2 SLP125 T02610094
KE16 - San Martin, California, USA
Distance from station: ESE 43km
Updated: 23/04/2019 18:55
Clear
Clear
 Wind from NW
Wind: NW 19 km/h
Temperature: 29°C
Dew Point: 10°C
Humidity: 31%
Barometer: 1012.9 hPa
Clouds: Clear
Visibility: 16 km
2019/04/24 01:55 KE16 240155Z AUTO 31010KT 10SM CLR 29/10 A2991 RMK AO2
 
KWVI - Watsonville, California, USA
Distance from station: SSE 44km
Updated: 23/04/2019 18:53
Clear
Clear
 Wind from SSW
Wind: SSW 9 km/h
Temperature: 16°C
Dew Point: 12°C
Humidity: 77%
Barometer: 1013.9 hPa
Clouds: Clear
Visibility: 16 km
2019/04/24 01:53 KWVI 240153Z AUTO 21005KT 10SM CLR 16/12 A2994 RMK AO2 SLP137 T01560117
KHAF - Half Moon Bay, California, USA
Distance from station: WNW 50km
Updated: 23/04/2019 19:00
Haze
Haze
 Wind from NW
Wind: NW 19 km/h
Temperature: 14°C
Dew Point: 11°C
Humidity: 82%
Barometer: 1014.2 hPa
Summary: Haze
Visibility: 6 km
2019/04/24 02:00 KHAF 240200Z AUTO 31010KT 4SM HZ 14/11 A2995 RMK AO2
 
KHWD - Hayward, California, USA
Distance from station: N 44km
Updated: 23/04/2019 18:54
Clear
Clear
 Wind from WNW
Wind: WNW 15 km/h
Temperature: 27°C
Dew Point: 9°C
Humidity: 32%
Barometer: 1012.5 hPa
Clouds: Clear
Visibility: 16 km
2019/04/24 01:54 KHWD 240154Z 29008KT 10SM CLR 27/09 A2990 RMK AO2 SLP135 T02720089
KLVK - Livermore, California, USA
Distance from station: NNE 51km
Updated: 23/04/2019 18:53
Clear
Clear
 Wind from W
Wind: W 11 km/h
Temperature: 28°C
Dew Point: 12°C
Humidity: 37%
Barometer: 1012.5 hPa
Clouds: Clear
Visibility: 16 km
2019/04/24 01:53 KLVK 240153Z 27006KT 10SM CLR 28/12 A2990 RMK AO2 SLP123 T02780117